Time;durP1;ratioP1;P1;durP2;ratioP2;P2;SDS_P1;SDS_P2;PMS_P1;PMS_P2;Temp;Humidity;BMP_temperature;BMP_pressure;BME280_temperature;BME280_humidity;BME280_pressure;Samples;Min_cycle;Max_cycle;Signal;HPM_P1;HPM_P2
2023/10/28 00:01:50;;;;;;;1.57;0.70;;;;;;;;;;5064958;28;20205;-64
2023/10/28 00:04:17;;;;;;;1.23;0.60;;;;;;;;;;5064491;28;20207;-65
2023/10/28 00:06:44;;;;;;;0.50;0.50;;;;;;;;;;5060485;28;20211;-64
2023/10/28 00:09:11;;;;;;;0.70;0.70;;;;;;;;;;5059136;28;20204;-64
2023/10/28 00:11:38;;;;;;;0.60;0.50;;;;;;;;;;5061774;28;20216;-65
2023/10/28 00:14:05;;;;;;;1.10;0.50;;;;;;;;;;5058363;28;20231;-66
2023/10/28 00:16:33;;;;;;;0.40;0.40;;;;;;;;;;5059107;28;20215;-70
2023/10/28 00:19:03;;;;;;;0.63;0.40;;;;;;;;;;5052895;28;20304;-70
2023/10/28 00:21:30;;;;;;;0.97;0.60;;;;;;;;;;5061236;28;20202;-70
2023/10/28 00:23:57;;;;;;;0.60;0.60;;;;;;;;;;5059899;28;20639;-70
2023/10/28 00:26:24;;;;;;;0.67;0.67;;;;;;;;;;5058475;28;20230;-69
2023/10/28 00:28:52;;;;;;;0.60;0.60;;;;;;;;;;5057511;28;20210;-70
2023/10/28 00:31:20;;;;;;;0.70;0.70;;;;;;;;;;5059919;28;20207;-69
2023/10/28 00:33:50;;;;;;;1.00;0.90;;;;;;;;;;5057591;28;20235;-69
2023/10/28 00:36:18;;;;;;;1.27;0.70;;;;;;;;;;5057020;28;20207;-69
2023/10/28 00:38:45;;;;;;;1.33;0.80;;;;;;;;;;5057211;28;20212;-68
2023/10/28 00:41:17;;;;;;;1.50;0.70;;;;;;;;;;5056469;28;20207;-68
2023/10/28 00:43:44;;;;;;;0.80;0.73;;;;;;;;;;5059736;28;20209;-70
2023/10/28 00:46:11;;;;;;;0.90;0.90;;;;;;;;;;5057150;28;20305;-69
2023/10/28 00:48:38;;;;;;;1.00;0.90;;;;;;;;;;5056027;28;20218;-69
2023/10/28 00:51:06;;;;;;;1.33;1.00;;;;;;;;;;5056298;28;20213;-69
2023/10/28 00:53:34;;;;;;;1.13;1.03;;;;;;;;;;5060005;28;20239;-69
2023/10/28 00:56:02;;;;;;;1.43;0.80;;;;;;;;;;5055862;28;20219;-70
2023/10/28 00:58:30;;;;;;;1.30;0.90;;;;;;;;;;5056912;28;20207;-70
2023/10/28 01:00:58;;;;;;;2.00;1.00;;;;;;;;;;5055853;28;20239;-68
2023/10/28 01:03:28;;;;;;;1.07;0.90;;;;;;;;;;5061940;28;20211;-68
2023/10/28 01:05:56;;;;;;;2.13;1.27;;;;;;;;;;5058188;28;20211;-69
2023/10/28 01:08:23;;;;;;;2.40;1.20;;;;;;;;;;5054367;28;20216;-68
2023/10/28 01:10:52;;;;;;;1.40;1.10;;;;;;;;;;5053984;28;20216;-69
2023/10/28 01:13:19;;;;;;;1.23;1.10;;;;;;;;;;5056126;28;20222;-69
2023/10/28 01:15:46;;;;;;;2.10;1.10;;;;;;;;;;5053356;28;20208;-69
2023/10/28 01:18:13;;;;;;;1.20;1.10;;;;;;;;;;5053837;28;20218;-69
2023/10/28 01:20:40;;;;;;;2.10;1.13;;;;;;;;;;5053458;28;20203;-68
2023/10/28 01:23:09;;;;;;;2.10;1.10;;;;;;;;;;5055242;28;20198;-69
2023/10/28 01:25:36;;;;;;;2.13;1.20;;;;;;;;;;5052654;28;20354;-68
2023/10/28 01:28:03;;;;;;;1.20;1.10;;;;;;;;;;5056661;28;20218;-70
2023/10/28 01:30:31;;;;;;;1.30;1.17;;;;;;;;;;5052555;28;20211;-69
2023/10/28 01:32:58;;;;;;;1.40;1.03;;;;;;;;;;5051892;28;20234;-70
2023/10/28 01:35:25;;;;;;;1.60;1.20;;;;;;;;;;5054255;28;20210;-69
2023/10/28 01:37:52;;;;;;;1.90;1.23;;;;;;;;;;5053464;28;20211;-69
2023/10/28 01:40:20;;;;;;;2.07;1.10;;;;;;;;;;5067643;28;20225;-70
2023/10/28 01:42:50;;;;;;;1.67;1.20;;;;;;;;;;5070539;28;20205;-69
2023/10/28 01:45:17;;;;;;;1.63;1.30;;;;;;;;;;5063891;28;20209;-70
2023/10/28 01:47:45;;;;;;;3.07;1.40;;;;;;;;;;5067501;28;20274;-69
2023/10/28 01:50:12;;;;;;;3.20;1.60;;;;;;;;;;5052634;28;20214;-70
2023/10/28 01:52:40;;;;;;;2.80;1.27;;;;;;;;;;5055334;28;20226;-70
2023/10/28 01:55:08;;;;;;;4.03;1.63;;;;;;;;;;5058221;28;20213;-69
2023/10/28 01:57:38;;;;;;;3.37;1.90;;;;;;;;;;5052530;28;20302;-70
2023/10/28 02:00:07;;;;;;;5.83;2.00;;;;;;;;;;5069928;28;20206;-71
2023/10/28 02:02:35;;;;;;;5.13;2.17;;;;;;;;;;5061142;28;20211;-70
2023/10/28 02:05:02;;;;;;;5.70;2.20;;;;;;;;;;5058829;28;20203;-70
2023/10/28 02:07:29;;;;;;;3.07;1.83;;;;;;;;;;5061219;28;20217;-70
2023/10/28 02:09:56;;;;;;;5.10;2.00;;;;;;;;;;5063316;28;20293;-69
2023/10/28 02:12:24;;;;;;;3.63;1.60;;;;;;;;;;5058260;28;20217;-70
2023/10/28 02:14:53;;;;;;;4.37;1.80;;;;;;;;;;5060430;28;20207;-69
2023/10/28 02:17:20;;;;;;;5.97;1.70;;;;;;;;;;5058453;28;20211;-69
2023/10/28 02:19:47;;;;;;;3.77;1.73;;;;;;;;;;5071574;28;20216;-69
2023/10/28 02:22:14;;;;;;;5.30;1.97;;;;;;;;;;5063955;28;20215;-69
2023/10/28 02:24:42;;;;;;;5.00;1.97;;;;;;;;;;5064622;28;20207;-70
2023/10/28 02:27:10;;;;;;;3.87;1.93;;;;;;;;;;5067609;28;20267;-69
2023/10/28 02:29:37;;;;;;;3.03;1.80;;;;;;;;;;5069114;28;20211;-68
2023/10/28 02:32:07;;;;;;;2.30;1.30;;;;;;;;;;5070775;28;20214;-69
2023/10/28 02:34:34;;;;;;;3.37;1.30;;;;;;;;;;5070235;28;20230;-69
2023/10/28 02:37:01;;;;;;;3.27;1.50;;;;;;;;;;5061012;28;20213;-69
2023/10/28 02:39:28;;;;;;;3.03;1.67;;;;;;;;;;5065001;28;20207;-69
2023/10/28 02:41:55;;;;;;;2.43;1.60;;;;;;;;;;5066959;28;20206;-69
2023/10/28 02:44:22;;;;;;;3.97;1.90;;;;;;;;;;5069755;28;20209;-69
2023/10/28 02:46:49;;;;;;;3.13;2.00;;;;;;;;;;5063290;28;20239;-69
2023/10/28 02:49:18;;;;;;;2.90;1.83;;;;;;;;;;5059972;28;20211;-69
2023/10/28 02:51:45;;;;;;;3.80;2.20;;;;;;;;;;5059838;28;20209;-69
2023/10/28 02:54:13;;;;;;;5.60;2.20;;;;;;;;;;5066261;28;20227;-69
2023/10/28 02:56:40;;;;;;;3.60;2.13;;;;;;;;;;5065076;28;20207;-69
2023/10/28 02:59:07;;;;;;;4.63;2.03;;;;;;;;;;5068644;28;20215;-69
2023/10/28 03:01:36;;;;;;;4.70;2.27;;;;;;;;;;5067924;28;20211;-70
2023/10/28 03:04:04;;;;;;;3.13;1.90;;;;;;;;;;5067491;28;20203;-69
2023/10/28 03:06:32;;;;;;;4.63;1.70;;;;;;;;;;5057168;28;20203;-68
2023/10/28 03:09:00;;;;;;;3.17;2.00;;;;;;;;;;5068644;28;20218;-69
2023/10/28 03:11:27;;;;;;;3.53;1.70;;;;;;;;;;5066220;28;20214;-69
2023/10/28 03:13:54;;;;;;;4.97;2.27;;;;;;;;;;5064907;28;20222;-69
2023/10/28 03:16:21;;;;;;;4.40;2.20;;;;;;;;;;5066575;28;20206;-68
2023/10/28 03:18:48;;;;;;;5.37;2.47;;;;;;;;;;5061407;28;20281;-68
2023/10/28 03:21:16;;;;;;;5.47;2.00;;;;;;;;;;5066258;28;20210;-69
2023/10/28 03:23:44;;;;;;;4.50;1.87;;;;;;;;;;5066100;28;20206;-68
2023/10/28 03:26:12;;;;;;;5.20;1.80;;;;;;;;;;5065629;28;20207;-69
2023/10/28 03:28:39;;;;;;;5.33;1.60;;;;;;;;;;5063363;28;20199;-69
2023/10/28 03:31:10;;;;;;;2.73;1.43;;;;;;;;;;5061831;28;20213;-68
2023/10/28 03:33:38;;;;;;;3.13;1.40;;;;;;;;;;5061910;28;20215;-69
2023/10/28 03:36:05;;;;;;;9.60;1.93;;;;;;;;;;5064328;28;20219;-69
2023/10/28 03:38:34;;;;;;;5.53;1.80;;;;;;;;;;5064228;28;20203;-69
2023/10/28 03:41:06;;;;;;;5.40;1.80;;;;;;;;;;5063311;28;20206;-70
2023/10/28 03:43:33;;;;;;;6.60;1.70;;;;;;;;;;5063918;28;20261;-69
2023/10/28 03:46:00;;;;;;;4.83;1.57;;;;;;;;;;5062945;28;20234;-64
2023/10/28 03:48:28;;;;;;;6.40;1.90;;;;;;;;;;5059609;28;20203;-65
2023/10/28 03:50:58;;;;;;;3.30;1.40;;;;;;;;;;5063986;28;20269;-65
2023/10/28 03:53:27;;;;;;;9.13;2.07;;;;;;;;;;5063091;28;20291;-64
2023/10/28 03:55:54;;;;;;;4.60;1.90;;;;;;;;;;5063064;28;20213;-64
2023/10/28 03:58:23;;;;;;;6.27;2.03;;;;;;;;;;5064224;28;20226;-64
2023/10/28 04:00:53;;;;;;;10.00;1.80;;;;;;;;;;5061326;28;20212;-64
2023/10/28 04:03:20;;;;;;;8.93;1.90;;;;;;;;;;5064493;28;20226;-65
2023/10/28 04:05:47;;;;;;;8.80;1.93;;;;;;;;;;5063248;28;20225;-65
2023/10/28 04:08:14;;;;;;;6.60;2.00;;;;;;;;;;5062214;28;20210;-65
2023/10/28 04:10:42;;;;;;;8.23;2.20;;;;;;;;;;5065127;28;20294;-64
2023/10/28 04:13:12;;;;;;;6.03;1.80;;;;;;;;;;5063738;28;20303;-64
2023/10/28 04:15:40;;;;;;;7.73;2.20;;;;;;;;;;5065458;28;20231;-64
2023/10/28 04:18:07;;;;;;;7.67;1.87;;;;;;;;;;5052972;28;20219;-64
2023/10/28 04:20:35;;;;;;;5.53;1.90;;;;;;;;;;5057727;28;20208;-64
2023/10/28 04:23:02;;;;;;;9.30;2.37;;;;;;;;;;5057053;28;20221;-64
2023/10/28 04:25:29;;;;;;;11.03;2.10;;;;;;;;;;5066012;28;20234;-65
2023/10/28 04:27:56;;;;;;;3.73;1.77;;;;;;;;;;5061230;28;20295;-64
2023/10/28 04:30:24;;;;;;;10.33;2.30;;;;;;;;;;5063079;28;20210;-65
2023/10/28 04:32:54;;;;;;;7.00;2.00;;;;;;;;;;5059036;28;20211;-64
2023/10/28 04:35:23;;;;;;;10.87;2.50;;;;;;;;;;5058924;28;20215;-64
2023/10/28 04:37:50;;;;;;;5.93;1.83;;;;;;;;;;5059321;28;20211;-65
2023/10/28 04:40:17;;;;;;;6.73;1.90;;;;;;;;;;5057433;28;20210;-64
2023/10/28 04:42:47;;;;;;;8.70;2.40;;;;;;;;;;5060395;28;20206;-65
2023/10/28 04:45:14;;;;;;;8.70;2.50;;;;;;;;;;5058793;28;20203;-64
2023/10/28 04:47:41;;;;;;;7.03;2.03;;;;;;;;;;5058034;28;20241;-64
2023/10/28 04:50:10;;;;;;;7.07;2.43;;;;;;;;;;5058805;28;20199;-63
2023/10/28 04:52:37;;;;;;;7.33;2.10;;;;;;;;;;5052409;28;20200;-64
2023/10/28 04:55:04;;;;;;;7.43;2.07;;;;;;;;;;5052555;28;20233;-64
2023/10/28 04:57:31;;;;;;;8.20;2.37;;;;;;;;;;5063198;28;20215;-64
2023/10/28 04:59:59;;;;;;;6.90;2.17;;;;;;;;;;5064944;28;20211;-64
2023/10/28 05:02:26;;;;;;;8.20;2.10;;;;;;;;;;5065299;28;20217;-65
2023/10/28 05:04:53;;;;;;;7.27;2.17;;;;;;;;;;5063513;28;20203;-64
2023/10/28 05:07:22;;;;;;;9.07;2.23;;;;;;;;;;5058595;28;20211;-64
2023/10/28 05:09:49;;;;;;;10.97;2.27;;;;;;;;;;5061345;28;20222;-64
2023/10/28 05:12:16;;;;;;;8.33;2.27;;;;;;;;;;5060729;28;20214;-64
2023/10/28 05:14:44;;;;;;;8.60;1.97;;;;;;;;;;5058262;28;20243;-65
2023/10/28 05:17:11;;;;;;;9.07;2.27;;;;;;;;;;5055127;28;20211;-64
2023/10/28 05:19:38;;;;;;;8.03;1.80;;;;;;;;;;5054770;28;20245;-64
2023/10/28 05:22:06;;;;;;;3.03;1.70;;;;;;;;;;5059659;28;20216;-64
2023/10/28 05:24:34;;;;;;;5.53;1.70;;;;;;;;;;5056840;28;20203;-64
2023/10/28 05:27:01;;;;;;;7.00;1.83;;;;;;;;;;5057575;28;20211;-64
2023/10/28 05:29:28;;;;;;;6.67;1.90;;;;;;;;;;5054479;28;20218;-63
2023/10/28 05:31:57;;;;;;;9.37;2.00;;;;;;;;;;5057741;28;20205;-64
2023/10/28 05:34:24;;;;;;;6.77;1.83;;;;;;;;;;5070353;28;20241;-63
2023/10/28 05:36:53;;;;;;;7.23;2.20;;;;;;;;;;5054073;28;20211;-64
2023/10/28 05:39:21;;;;;;;8.10;2.40;;;;;;;;;;5052928;28;20208;-63
2023/10/28 05:41:50;;;;;;;2.73;1.80;;;;;;;;;;5054057;28;20199;-63
2023/10/28 05:44:17;;;;;;;8.77;2.30;;;;;;;;;;5053953;28;20199;-64
2023/10/28 05:46:45;;;;;;;5.77;1.97;;;;;;;;;;5058139;28;20234;-64
2023/10/28 05:49:14;;;;;;;5.17;1.80;;;;;;;;;;5052489;28;20261;-64
2023/10/28 05:51:41;;;;;;;7.90;2.30;;;;;;;;;;5052498;28;20207;-64
2023/10/28 05:54:11;;;;;;;8.53;2.30;;;;;;;;;;5053396;28;20219;-64
2023/10/28 05:56:38;;;;;;;7.17;1.97;;;;;;;;;;5056814;28;20303;-64
2023/10/28 05:59:08;;;;;;;6.67;1.83;;;;;;;;;;5061101;28;20213;-64
2023/10/28 06:01:35;;;;;;;5.13;1.90;;;;;;;;;;5069490;28;20236;-64
2023/10/28 06:04:03;;;;;;;6.97;2.03;;;;;;;;;;5067149;28;20199;-64
2023/10/28 06:06:31;;;;;;;4.97;1.73;;;;;;;;;;5071242;28;20210;-64
2023/10/28 06:08:58;;;;;;;5.87;2.00;;;;;;;;;;5066684;28;20309;-64
2023/10/28 06:11:25;;;;;;;6.60;1.73;;;;;;;;;;5066790;28;20293;-64
2023/10/28 06:13:52;;;;;;;7.70;1.50;;;;;;;;;;5062239;28;20235;-63
2023/10/28 06:16:20;;;;;;;3.97;1.50;;;;;;;;;;5069140;28;20238;-63
2023/10/28 06:18:48;;;;;;;3.63;1.53;;;;;;;;;;5060118;28;20211;-63
2023/10/28 06:21:15;;;;;;;5.93;1.87;;;;;;;;;;5058555;28;20206;-63
2023/10/28 06:23:42;;;;;;;5.83;1.90;;;;;;;;;;5062510;28;20195;-63
2023/10/28 06:26:10;;;;;;;9.03;2.00;;;;;;;;;;5065845;28;20290;-63
2023/10/28 06:28:37;;;;;;;9.57;1.93;;;;;;;;;;5067796;28;20364;-64
2023/10/28 06:31:04;;;;;;;6.80;1.90;;;;;;;;;;5068619;28;20218;-63
2023/10/28 06:33:33;;;;;;;7.07;1.70;;;;;;;;;;5063408;28;20249;-63
2023/10/28 06:36:00;;;;;;;5.63;2.20;;;;;;;;;;5066143;28;20238;-64
2023/10/28 06:38:28;;;;;;;6.73;1.70;;;;;;;;;;5065498;28;20215;-63
2023/10/28 06:40:57;;;;;;;3.27;1.50;;;;;;;;;;5066147;28;20203;-63
2023/10/28 06:43:24;;;;;;;5.63;1.50;;;;;;;;;;5056518;28;20214;-63
2023/10/28 06:45:51;;;;;;;4.73;1.67;;;;;;;;;;5054499;28;20287;-64
2023/10/28 06:48:18;;;;;;;5.23;1.47;;;;;;;;;;5063846;28;20210;-65
2023/10/28 06:50:48;;;;;;;5.87;1.40;;;;;;;;;;5068930;28;20276;-64
2023/10/28 06:53:15;;;;;;;5.37;1.53;;;;;;;;;;5069255;28;20207;-64
2023/10/28 06:55:42;;;;;;;4.73;1.20;;;;;;;;;;5068215;28;20321;-64
2023/10/28 06:58:09;;;;;;;3.70;1.20;;;;;;;;;;5065215;28;20198;-64
2023/10/28 07:00:37;;;;;;;6.53;1.50;;;;;;;;;;5063993;28;20203;-64
2023/10/28 07:03:06;;;;;;;3.20;1.13;;;;;;;;;;5059526;28;20214;-64
2023/10/28 07:05:34;;;;;;;5.67;1.20;;;;;;;;;;5063665;28;20289;-64
2023/10/28 07:08:03;;;;;;;5.00;1.50;;;;;;;;;;5065703;28;20210;-64
2023/10/28 07:10:30;;;;;;;2.93;1.10;;;;;;;;;;5064039;28;20249;-63
2023/10/28 07:12:57;;;;;;;4.73;1.70;;;;;;;;;;5062863;28;20213;-63
2023/10/28 07:15:24;;;;;;;2.93;1.20;;;;;;;;;;5065783;28;20257;-64
2023/10/28 07:17:51;;;;;;;3.17;1.33;;;;;;;;;;5065784;28;20299;-69
2023/10/28 07:20:19;;;;;;;5.60;1.70;;;;;;;;;;5067567;28;20214;-69
2023/10/28 07:22:46;;;;;;;6.03;1.50;;;;;;;;;;5063757;28;20260;-69
2023/10/28 07:25:15;;;;;;;3.83;1.30;;;;;;;;;;5060923;28;20199;-70
2023/10/28 07:27:42;;;;;;;6.07;1.80;;;;;;;;;;5063225;28;20199;-69
2023/10/28 07:30:10;;;;;;;5.73;1.70;;;;;;;;;;5067350;28;20211;-70
2023/10/28 07:32:38;;;;;;;4.97;1.63;;;;;;;;;;5054093;28;20218;-68
2023/10/28 07:35:06;;;;;;;7.83;1.87;;;;;;;;;;5053547;28;20223;-70
2023/10/28 07:37:34;;;;;;;4.63;1.57;;;;;;;;;;5066612;28;20523;-69
2023/10/28 07:40:01;;;;;;;4.13;1.63;;;;;;;;;;5063521;28;20217;-69
2023/10/28 07:42:30;;;;;;;5.93;1.80;;;;;;;;;;5065054;28;20273;-69
2023/10/28 07:44:57;;;;;;;4.33;1.50;;;;;;;;;;5064602;28;20210;-69
2023/10/28 07:47:24;;;;;;;3.13;1.50;;;;;;;;;;5061310;28;20241;-68
2023/10/28 07:49:52;;;;;;;5.00;1.57;;;;;;;;;;5063960;28;20207;-69
2023/10/28 07:52:19;;;;;;;6.43;1.90;;;;;;;;;;5060574;28;20199;-69
2023/10/28 07:54:47;;;;;;;4.77;1.60;;;;;;;;;;5060777;28;20238;-68
2023/10/28 07:57:14;;;;;;;4.73;1.60;;;;;;;;;;5064562;28;20207;-69
2023/10/28 07:59:42;;;;;;;6.67;1.80;;;;;;;;;;5063751;28;20203;-70
2023/10/28 08:02:10;;;;;;;4.67;1.57;;;;;;;;;;5054816;28;20203;-68
2023/10/28 08:04:37;;;;;;;6.00;2.67;;;;;;;;;;5062289;28;20203;-69
2023/10/28 08:07:04;;;;;;;6.23;1.70;;;;;;;;;;5066077;28;20207;-69
2023/10/28 08:09:32;;;;;;;5.47;1.77;;;;;;;;;;5063490;28;20215;-68
2023/10/28 08:11:59;;;;;;;4.83;1.90;;;;;;;;;;5062919;28;20211;-70
2023/10/28 08:14:28;;;;;;;4.40;1.80;;;;;;;;;;5059646;28;20202;-68
2023/10/28 08:16:57;;;;;;;4.70;1.70;;;;;;;;;;5061452;28;20294;-69
2023/10/28 08:19:24;;;;;;;9.13;2.03;;;;;;;;;;5059688;28;20207;-69
2023/10/28 08:21:52;;;;;;;7.13;1.80;;;;;;;;;;5062234;28;20211;-69
2023/10/28 08:24:22;;;;;;;5.87;2.00;;;;;;;;;;5061417;28;20212;-69
2023/10/28 08:26:49;;;;;;;10.33;2.10;;;;;;;;;;5059575;28;20203;-64
2023/10/28 08:29:16;;;;;;;6.73;2.47;;;;;;;;;;5052765;28;20278;-65
2023/10/28 08:31:43;;;;;;;7.03;1.97;;;;;;;;;;5054065;28;20206;-64
2023/10/28 08:34:12;;;;;;;7.07;2.03;;;;;;;;;;5058316;28;20208;-63
2023/10/28 08:36:39;;;;;;;4.70;1.87;;;;;;;;;;5060101;28;20234;-64
2023/10/28 08:39:07;;;;;;;6.87;2.40;;;;;;;;;;5060683;28;20206;-63
2023/10/28 08:41:34;;;;;;;8.43;2.17;;;;;;;;;;5062892;28;20199;-64
2023/10/28 08:44:04;;;;;;;8.00;2.00;;;;;;;;;;5059581;28;20203;-65
2023/10/28 08:46:32;;;;;;;7.07;2.63;;;;;;;;;;5062241;28;20325;-63
2023/10/28 08:49:00;;;;;;;7.33;2.07;;;;;;;;;;5060631;28;20203;-65
2023/10/28 08:51:28;;;;;;;9.60;2.10;;;;;;;;;;5062668;28;20206;-64
2023/10/28 08:53:56;;;;;;;7.53;1.90;;;;;;;;;;5063252;28;20202;-64
2023/10/28 08:56:25;;;;;;;8.50;2.17;;;;;;;;;;5063088;28;20225;-64
2023/10/28 08:58:53;;;;;;;7.40;2.00;;;;;;;;;;5062069;28;20206;-63
2023/10/28 09:01:22;;;;;;;7.37;2.00;;;;;;;;;;5062220;28;20209;-64
2023/10/28 09:03:54;;;;;;;7.40;1.83;;;;;;;;;;5063069;28;20210;-64
2023/10/28 09:06:21;;;;;;;9.13;2.93;;;;;;;;;;5064263;28;20252;-64
2023/10/28 09:08:50;;;;;;;8.03;1.90;;;;;;;;;;5065414;28;20221;-64
2023/10/28 09:11:17;;;;;;;6.73;2.37;;;;;;;;;;5058136;28;20219;-64
2023/10/28 09:13:45;;;;;;;7.37;1.90;;;;;;;;;;5058936;28;20208;-64
2023/10/28 09:16:14;;;;;;;5.20;1.80;;;;;;;;;;5061849;28;20235;-64
2023/10/28 09:18:41;;;;;;;6.20;2.00;;;;;;;;;;5058278;28;20210;-63
2023/10/28 09:21:09;;;;;;;10.70;2.37;;;;;;;;;;5059825;28;20211;-64
2023/10/28 09:23:36;;;;;;;7.00;2.30;;;;;;;;;;5058932;28;20265;-64
2023/10/28 09:26:06;;;;;;;6.90;2.17;;;;;;;;;;5062897;28;20198;-64
2023/10/28 09:28:33;;;;;;;11.30;2.03;;;;;;;;;;5058962;28;20290;-64
2023/10/28 09:31:01;;;;;;;8.77;2.20;;;;;;;;;;5063209;28;20214;-63
2023/10/28 09:33:28;;;;;;;7.87;1.90;;;;;;;;;;5054220;28;20212;-63
2023/10/28 09:35:55;;;;;;;8.03;2.30;;;;;;;;;;5057186;28;20429;-63
2023/10/28 09:38:23;;;;;;;10.03;3.10;;;;;;;;;;5059822;28;20289;-64
2023/10/28 09:40:50;;;;;;;12.10;2.60;;;;;;;;;;5057331;28;20221;-64
2023/10/28 09:43:19;;;;;;;8.17;2.03;;;;;;;;;;5056136;28;20237;-63
2023/10/28 09:45:47;;;;;;;10.20;2.77;;;;;;;;;;5054124;28;20203;-65
2023/10/28 09:48:17;;;;;;;12.57;2.27;;;;;;;;;;5054950;28;20359;-64
2023/10/28 09:50:48;;;;;;;8.03;2.37;;;;;;;;;;5060260;28;20203;-64
2023/10/28 09:53:17;;;;;;;11.27;2.07;;;;;;;;;;5060713;28;20230;-65
2023/10/28 09:55:45;;;;;;;11.07;2.07;;;;;;;;;;5053722;28;20308;-64
2023/10/28 09:58:15;;;;;;;9.80;2.53;;;;;;;;;;5059996;28;20211;-64
2023/10/28 10:00:44;;;;;;;7.13;2.27;;;;;;;;;;5052976;28;20214;-64
2023/10/28 10:03:19;;;;;;;13.13;3.23;;;;;;;;;;5061313;28;20235;-63
2023/10/28 10:05:46;;;;;;;8.60;2.30;;;;;;;;;;5059803;28;20201;-64
2023/10/28 10:08:20;;;;;;;5.63;2.00;;;;;;;;;;5058136;28;20199;-63
2023/10/28 10:10:47;;;;;;;6.73;2.57;;;;;;;;;;5055503;28;20210;-63
2023/10/28 10:13:15;;;;;;;8.97;2.30;;;;;;;;;;5052589;28;20211;-63
2023/10/28 10:15:45;;;;;;;7.13;2.57;;;;;;;;;;5069917;28;20226;-63
2023/10/28 10:18:12;;;;;;;6.93;2.30;;;;;;;;;;5051430;28;20207;-63
2023/10/28 10:20:44;;;;;;;6.80;2.10;;;;;;;;;;5053323;28;20264;-62
2023/10/28 10:23:11;;;;;;;6.30;1.90;;;;;;;;;;5059762;28;20209;-63
2023/10/28 10:25:43;;;;;;;6.27;1.90;;;;;;;;;;5071368;28;20207;-63
2023/10/28 10:28:15;;;;;;;6.70;2.37;;;;;;;;;;5074656;28;20214;-63
2023/10/28 10:30:43;;;;;;;4.63;1.90;;;;;;;;;;5068481;28;20211;-63
2023/10/28 10:33:11;;;;;;;4.17;1.50;;;;;;;;;;5056634;28;20449;-63
2023/10/28 10:35:39;;;;;;;4.60;1.50;;;;;;;;;;5066322;28;20314;-63
2023/10/28 10:38:07;;;;;;;2.87;1.60;;;;;;;;;;5070627;28;20196;-64
2023/10/28 10:40:35;;;;;;;3.03;1.00;;;;;;;;;;5068832;28;20209;-63
2023/10/28 10:43:06;;;;;;;2.30;1.57;;;;;;;;;;5062691;28;20206;-64
2023/10/28 10:45:34;;;;;;;3.10;1.63;;;;;;;;;;5059989;28;20206;-64
2023/10/28 10:48:02;;;;;;;4.10;2.23;;;;;;;;;;5056952;28;20249;-69
2023/10/28 10:50:31;;;;;;;5.10;2.00;;;;;;;;;;5060908;28;20278;-69
2023/10/28 10:52:59;;;;;;;11.40;2.53;;;;;;;;;;5068479;28;20249;-68
2023/10/28 10:55:28;;;;;;;8.23;2.10;;;;;;;;;;5059979;28;20203;-69
2023/10/28 10:57:56;;;;;;;8.27;2.60;;;;;;;;;;5060442;28;20199;-69
2023/10/28 11:00:23;;;;;;;9.00;2.40;;;;;;;;;;5069629;28;20213;-69
2023/10/28 11:02:53;;;;;;;7.27;2.37;;;;;;;;;;5059106;28;20203;-68
2023/10/28 11:05:20;;;;;;;8.57;2.47;;;;;;;;;;5064139;28;20202;-69
2023/10/28 11:07:48;;;;;;;6.30;2.17;;;;;;;;;;5058924;28;20201;-69
2023/10/28 11:10:16;;;;;;;4.50;2.03;;;;;;;;;;5067467;28;20218;-68
2023/10/28 11:12:43;;;;;;;8.00;2.00;;;;;;;;;;5070299;28;20215;-69
2023/10/28 11:15:11;;;;;;;9.50;1.97;;;;;;;;;;5062747;28;20263;-68
2023/10/28 11:17:38;;;;;;;9.00;2.23;;;;;;;;;;5061224;28;20229;-69
2023/10/28 11:20:06;;;;;;;7.80;2.30;;;;;;;;;;5060221;28;20201;-68
2023/10/28 11:22:33;;;;;;;9.27;2.20;;;;;;;;;;5060621;28;20253;-68
2023/10/28 11:25:04;;;;;;;6.63;2.30;;;;;;;;;;5059756;28;20206;-68
2023/10/28 11:27:33;;;;;;;10.43;2.20;;;;;;;;;;5068935;28;20206;-68
2023/10/28 11:30:01;;;;;;;7.37;2.20;;;;;;;;;;5062817;28;20693;-68
2023/10/28 11:32:28;;;;;;;8.07;2.10;;;;;;;;;;5065327;28;20211;-68
2023/10/28 11:34:57;;;;;;;11.10;2.90;;;;;;;;;;5068846;28;20206;-69
2023/10/28 11:37:24;;;;;;;8.40;2.03;;;;;;;;;;5059196;28;20223;-68
2023/10/28 11:39:52;;;;;;;5.93;2.10;;;;;;;;;;5055133;28;20270;-68
2023/10/28 11:42:20;;;;;;;6.77;2.13;;;;;;;;;;5059565;28;20214;-67
2023/10/28 11:44:51;;;;;;;6.33;2.00;;;;;;;;;;5062599;28;20211;-68
2023/10/28 11:47:20;;;;;;;8.30;2.27;;;;;;;;;;5060568;28;20249;-68
2023/10/28 11:49:48;;;;;;;5.80;1.70;;;;;;;;;;5064499;28;20218;-68
2023/10/28 11:52:15;;;;;;;7.63;2.40;;;;;;;;;;5062859;28;20203;-68
2023/10/28 11:54:42;;;;;;;6.30;1.90;;;;;;;;;;5064200;28;20210;-68
2023/10/28 11:57:09;;;;;;;9.60;2.50;;;;;;;;;;5060397;28;20317;-63
2023/10/28 11:59:38;;;;;;;6.40;1.70;;;;;;;;;;5061347;28;20222;-63
2023/10/28 12:02:05;;;;;;;7.37;2.00;;;;;;;;;;5061615;28;20217;-63
2023/10/28 12:04:32;;;;;;;8.30;2.20;;;;;;;;;;5057589;28;20203;-63
2023/10/28 12:06:59;;;;;;;5.53;1.90;;;;;;;;;;5060110;28;20199;-64
2023/10/28 12:09:26;;;;;;;5.00;1.80;;;;;;;;;;5062819;28;20206;-64
2023/10/28 12:11:54;;;;;;;6.13;2.10;;;;;;;;;;5063206;28;20211;-64
2023/10/28 12:14:22;;;;;;;12.10;2.13;;;;;;;;;;5060465;28;20226;-64
2023/10/28 12:16:50;;;;;;;6.20;2.30;;;;;;;;;;5059646;28;20227;-64
2023/10/28 12:19:18;;;;;;;6.53;1.87;;;;;;;;;;5065411;28;20369;-63
2023/10/28 12:21:45;;;;;;;7.07;2.10;;;;;;;;;;5061748;28;20211;-63
2023/10/28 12:24:12;;;;;;;8.10;3.30;;;;;;;;;;5066455;28;20226;-63
2023/10/28 12:26:39;;;;;;;6.70;2.00;;;;;;;;;;5064635;28;20210;-63
2023/10/28 12:29:07;;;;;;;5.03;2.00;;;;;;;;;;5060311;28;20245;-63
2023/10/28 12:31:34;;;;;;;6.07;1.80;;;;;;;;;;5060882;28;20225;-63
2023/10/28 12:34:03;;;;;;;6.03;2.00;;;;;;;;;;5059676;28;20236;-63
2023/10/28 12:36:31;;;;;;;8.70;1.70;;;;;;;;;;5058630;28;20285;-64
2023/10/28 12:38:59;;;;;;;7.67;1.50;;;;;;;;;;5061533;28;20206;-63
2023/10/28 12:41:26;;;;;;;5.53;1.50;;;;;;;;;;5058054;28;20203;-63
2023/10/28 12:43:53;;;;;;;4.80;1.70;;;;;;;;;;5062481;28;20207;-64
2023/10/28 12:46:22;;;;;;;4.93;1.40;;;;;;;;;;5060020;28;20227;-64
2023/10/28 12:48:49;;;;;;;5.30;1.43;;;;;;;;;;5061884;28;20210;-63
2023/10/28 12:51:20;;;;;;;3.67;1.40;;;;;;;;;;5063081;28;20206;-64
2023/10/28 12:53:47;;;;;;;6.50;1.83;;;;;;;;;;5052157;28;20237;-64
2023/10/28 12:56:14;;;;;;;4.43;1.70;;;;;;;;;;5052558;28;20217;-64
2023/10/28 12:58:41;;;;;;;5.47;1.50;;;;;;;;;;5059858;28;20226;-64
2023/10/28 13:01:08;;;;;;;4.47;1.60;;;;;;;;;;5058093;28;20219;-63
2023/10/28 13:03:35;;;;;;;5.50;1.67;;;;;;;;;;5061517;28;20208;-64
2023/10/28 13:06:02;;;;;;;4.10;1.47;;;;;;;;;;5060733;28;20218;-65
2023/10/28 13:08:32;;;;;;;3.40;1.20;;;;;;;;;;5061660;28;20260;-69
2023/10/28 13:10:59;;;;;;;4.17;1.40;;;;;;;;;;5063642;28;20218;-68
2023/10/28 13:13:26;;;;;;;5.47;1.43;;;;;;;;;;5059782;28;20203;-68
2023/10/28 13:15:53;;;;;;;3.60;1.40;;;;;;;;;;5054836;28;20199;-68
2023/10/28 13:18:20;;;;;;;2.33;1.20;;;;;;;;;;5056114;28;20225;-69
2023/10/28 13:20:47;;;;;;;4.67;1.60;;;;;;;;;;5055204;28;20214;-68
2023/10/28 13:23:14;;;;;;;3.63;1.20;;;;;;;;;;5061205;28;20225;-68
2023/10/28 13:25:43;;;;;;;3.30;1.50;;;;;;;;;;5055069;28;20203;-68
2023/10/28 13:28:11;;;;;;;3.90;2.00;;;;;;;;;;5054669;28;20242;-69
2023/10/28 13:30:38;;;;;;;3.80;2.20;;;;;;;;;;5057465;28;20264;-68
2023/10/28 13:33:06;;;;;;;4.03;1.67;;;;;;;;;;5052027;28;20195;-68
2023/10/28 13:35:33;;;;;;;3.83;1.73;;;;;;;;;;5057843;28;20290;-69
2023/10/28 13:38:00;;;;;;;2.57;1.20;;;;;;;;;;5054832;28;20233;-69
2023/10/28 13:40:27;;;;;;;2.67;1.40;;;;;;;;;;5055838;28;20198;-68
2023/10/28 13:42:56;;;;;;;1.83;1.30;;;;;;;;;;5058097;28;20203;-68
2023/10/28 13:45:23;;;;;;;1.60;1.00;;;;;;;;;;5052627;28;20535;-69
2023/10/28 13:47:54;;;;;;;2.70;1.40;;;;;;;;;;5057549;28;20327;-69
2023/10/28 13:50:21;;;;;;;2.67;1.10;;;;;;;;;;5051153;28;20203;-68
2023/10/28 13:52:50;;;;;;;2.87;1.30;;;;;;;;;;5052650;28;20205;-69
2023/10/28 13:55:18;;;;;;;4.47;1.20;;;;;;;;;;5055182;28;20239;-68
2023/10/28 13:57:46;;;;;;;1.43;1.10;;;;;;;;;;5055919;28;20224;-69
2023/10/28 14:00:16;;;;;;;2.67;1.40;;;;;;;;;;5051683;28;20203;-69
2023/10/28 14:02:43;;;;;;;4.93;1.30;;;;;;;;;;5052316;28;20219;-69
2023/10/28 14:05:11;;;;;;;2.03;1.23;;;;;;;;;;5029279;28;20219;-69
2023/10/28 14:07:39;;;;;;;2.57;1.30;;;;;;;;;;5026773;28;20204;-69
2023/10/28 14:10:07;;;;;;;3.23;1.60;;;;;;;;;;5032370;28;20207;-69
2023/10/28 14:12:36;;;;;;;3.67;1.80;;;;;;;;;;5034186;28;20258;-68
2023/10/28 14:15:07;;;;;;;2.70;1.60;;;;;;;;;;5032954;28;20234;-68
2023/10/28 14:17:36;;;;;;;2.27;1.37;;;;;;;;;;5030771;28;20228;-68
2023/10/28 14:20:04;;;;;;;2.53;1.50;;;;;;;;;;5036376;28;20226;-69
2023/10/28 14:22:31;;;;;;;3.37;1.67;;;;;;;;;;5030424;28;20204;-68
2023/10/28 14:24:58;;;;;;;3.13;1.80;;;;;;;;;;5034298;28;20229;-68
2023/10/28 14:27:28;;;;;;;2.40;1.50;;;;;;;;;;5029661;28;20212;-68
2023/10/28 14:29:56;;;;;;;2.53;1.40;;;;;;;;;;5030495;28;20214;-69
2023/10/28 14:32:24;;;;;;;4.57;1.47;;;;;;;;;;5023310;28;20239;-69
2023/10/28 14:34:55;;;;;;;3.13;1.70;;;;;;;;;;5034888;28;20204;-69
2023/10/28 14:37:22;;;;;;;3.43;1.53;;;;;;;;;;5028604;28;20234;-69
2023/10/28 14:39:50;;;;;;;2.73;1.37;;;;;;;;;;5033850;28;20230;-69
2023/10/28 14:42:17;;;;;;;3.17;1.97;;;;;;;;;;5034664;28;20203;-69
2023/10/28 14:44:44;;;;;;;2.40;1.57;;;;;;;;;;5030958;28;20200;-69
2023/10/28 14:47:12;;;;;;;4.57;2.00;;;;;;;;;;5025345;28;20232;-69